Time;durP1;ratioP1;P1;durP2;ratioP2;P2;SDS_P1;SDS_P2;PMS_P1;PMS_P2;Temp;Humidity;BMP_temperature;BMP_pressure;BME280_temperature;BME280_humidity;BME280_pressure;Samples;Min_cycle;Max_cycle;Signal;HPM_P1;HPM_P2
2023/12/19 00:00:12;;;;;;;2.55;1.38;;;;;;;12.40;84.65;100643.88;4993662;28;20104;-46
2023/12/19 00:02:39;;;;;;;3.50;1.65;;;;;;;12.39;83.76;100642.16;5014236;28;20053;-51
2023/12/19 00:05:09;;;;;;;3.53;1.60;;;;;;;12.37;84.74;100641.28;4999595;28;20054;-48
2023/12/19 00:07:36;;;;;;;2.67;1.33;;;;;;;12.37;84.21;100630.88;5003530;28;20050;-49
2023/12/19 00:10:03;;;;;;;2.90;1.88;;;;;;;12.34;83.81;100635.22;5003402;28;20049;-49
2023/12/19 00:12:30;;;;;;;2.00;0.93;;;;;;;12.30;84.74;100617.91;5003858;28;20042;-45
2023/12/19 00:14:58;;;;;;;2.85;1.58;;;;;;;12.34;84.48;100614.44;4999912;28;20131;-46
2023/12/19 00:17:24;;;;;;;2.53;1.58;;;;;;;12.34;84.55;100604.03;4992258;28;20053;-50
2023/12/19 00:19:53;;;;;;;3.72;1.45;;;;;;;12.34;84.68;100619.63;4992768;28;20084;-45
2023/12/19 00:22:20;;;;;;;2.47;1.42;;;;;;;12.36;83.79;100616.19;4995130;28;20627;-50
2023/12/19 00:24:46;;;;;;;3.33;1.55;;;;;;;12.32;84.76;100610.97;5000602;28;20054;-47
2023/12/19 00:27:14;;;;;;;3.13;1.55;;;;;;;12.30;84.32;100607.50;5006063;28;20049;-46
2023/12/19 00:29:43;;;;;;;2.33;1.23;;;;;;;12.34;84.09;100617.03;5002689;28;20042;-44
2023/12/19 00:32:10;;;;;;;3.05;1.55;;;;;;;12.31;83.66;100609.25;4997884;28;20058;-47
2023/12/19 00:34:37;;;;;;;4.82;1.45;;;;;;;12.31;84.55;100614.47;5007580;28;20061;-49
2023/12/19 00:37:04;;;;;;;2.08;1.17;;;;;;;12.33;84.26;100617.91;5003445;28;20077;-47
2023/12/19 00:39:30;;;;;;;2.47;1.15;;;;;;;12.30;84.27;100602.31;4996986;28;20081;-48
2023/12/19 00:41:57;;;;;;;2.28;1.08;;;;;;;12.29;84.89;100600.59;4999419;28;20074;-46
2023/12/19 00:44:24;;;;;;;2.08;1.38;;;;;;;12.28;84.82;100593.69;5005600;28;20050;-46
2023/12/19 00:46:50;;;;;;;2.17;1.20;;;;;;;12.30;83.84;100597.13;5001260;28;20129;-45
2023/12/19 00:49:18;;;;;;;0.85;0.73;;;;;;;12.26;85.32;100595.41;5005686;28;20061;-46
2023/12/19 00:51:45;;;;;;;2.15;1.17;;;;;;;12.30;84.44;100581.53;4997703;28;20105;-51
2023/12/19 00:54:13;;;;;;;2.63;0.90;;;;;;;12.31;84.71;100588.47;5004453;28;20069;-41
2023/12/19 00:56:42;;;;;;;2.53;1.40;;;;;;;12.31;84.59;100588.47;5003020;28;20427;-50
2023/12/19 00:59:09;;;;;;;1.70;0.93;;;;;;;12.32;84.63;100582.41;5005413;28;20069;-49
2023/12/19 01:01:36;;;;;;;1.95;0.77;;;;;;;12.31;84.47;100580.69;5004040;28;20050;-45
2023/12/19 01:04:04;;;;;;;1.40;1.00;;;;;;;12.27;84.81;100581.56;5002999;28;20046;-46
2023/12/19 01:06:31;;;;;;;2.47;1.50;;;;;;;12.28;84.62;100574.63;4997921;28;20053;-47
2023/12/19 01:08:59;;;;;;;2.42;0.90;;;;;;;12.30;84.76;100573.75;5000700;28;20053;-44
2023/12/19 01:11:26;;;;;;;3.20;1.80;;;;;;;12.31;84.29;100561.63;4994051;28;20388;-49
2023/12/19 01:13:53;;;;;;;1.60;1.20;;;;;;;12.32;84.49;100569.44;5005213;28;20052;-48
2023/12/19 01:16:20;;;;;;;2.10;1.30;;;;;;;12.30;84.92;100576.34;5006186;28;20046;-46
2023/12/19 01:18:47;;;;;;;2.30;1.13;;;;;;;12.29;85.25;100574.63;4995872;28;20108;-49
2023/12/19 01:21:14;;;;;;;1.92;1.35;;;;;;;12.29;84.93;100578.97;4999588;28;20582;-45
2023/12/19 01:23:41;;;;;;;2.55;1.30;;;;;;;12.29;83.69;100572.03;5005626;28;20115;-47
2023/12/19 01:26:07;;;;;;;2.63;1.02;;;;;;;12.28;85.02;100562.50;5006156;28;20740;-49
2023/12/19 01:28:45;;;;;;;1.60;1.10;;;;;;;12.30;84.85;100565.09;5002758;28;20083;-51
2023/12/19 01:31:12;;;;;;;1.30;0.85;;;;;;;12.30;83.99;100565.94;4999648;28;20057;-46
2023/12/19 01:33:39;;;;;;;2.28;0.90;;;;;;;12.26;84.05;100568.56;4997175;28;20447;-45
2023/12/19 01:36:06;;;;;;;2.75;0.93;;;;;;;12.25;84.42;100562.50;5002486;28;20085;-45
2023/12/19 01:38:33;;;;;;;2.72;1.25;;;;;;;12.28;84.89;100559.91;4997540;28;20053;-54
2023/12/19 01:41:00;;;;;;;2.80;0.93;;;;;;;12.28;84.75;100556.44;5008046;28;20100;-44
2023/12/19 01:43:28;;;;;;;1.63;1.10;;;;;;;12.29;84.79;100558.19;5001540;28;20081;-48
2023/12/19 01:45:55;;;;;;;1.50;0.95;;;;;;;12.28;85.29;100552.13;5001399;28;20045;-45
2023/12/19 01:48:26;;;;;;;5.25;1.33;;;;;;;12.29;84.63;100548.66;5002080;28;20447;-45
2023/12/19 01:50:54;;;;;;;1.92;1.38;;;;;;;12.28;83.99;100544.31;4999502;28;20455;-45
2023/12/19 01:53:24;;;;;;;4.15;1.00;;;;;;;12.29;84.47;100553.84;5003228;28;20090;-50
2023/12/19 01:55:55;;;;;;;1.85;1.05;;;;;;;12.29;85.25;100542.59;4999708;28;20108;-47
2023/12/19 01:58:25;;;;;;;3.28;1.20;;;;;;;12.28;84.08;100536.53;4996761;28;20077;-45
2023/12/19 02:00:53;;;;;;;2.67;1.08;;;;;;;12.30;85.22;100539.97;4996930;28;20122;-48
2023/12/19 02:03:21;;;;;;;1.27;0.82;;;;;;;12.31;84.63;100540.84;5000169;28;20046;-44
2023/12/19 02:05:51;;;;;;;1.42;0.80;;;;;;;12.28;85.00;100536.53;4999379;28;20050;-45
2023/12/19 02:08:19;;;;;;;1.20;0.88;;;;;;;12.30;84.15;100532.19;4996200;28;20050;-49
2023/12/19 02:10:47;;;;;;;1.63;1.17;;;;;;;12.31;83.78;100531.34;4997725;28;20057;-46
2023/12/19 02:13:14;;;;;;;1.70;1.23;;;;;;;12.30;84.90;100532.19;4997217;28;20140;-48
2023/12/19 02:15:43;;;;;;;1.65;1.08;;;;;;;12.30;85.27;100545.16;5000255;28;20050;-46
2023/12/19 02:18:15;;;;;;;3.20;1.00;;;;;;;12.27;84.93;100540.00;4999449;28;20046;-48
2023/12/19 02:20:43;;;;;;;1.98;1.00;;;;;;;12.27;84.79;100534.81;5000474;28;20084;-46
2023/12/19 02:23:14;;;;;;;1.83;0.88;;;;;;;12.29;84.90;100533.06;4995256;28;20712;-45
2023/12/19 02:25:41;;;;;;;2.78;1.38;;;;;;;12.28;84.35;100528.75;5001146;28;20152;-43
2023/12/19 02:28:08;;;;;;;3.33;1.20;;;;;;;12.30;85.58;100528.75;4998566;28;20085;-46
2023/12/19 02:30:35;;;;;;;3.30;1.20;;;;;;;12.27;85.10;100529.63;5003539;28;20049;-50
2023/12/19 02:33:05;;;;;;;1.45;0.88;;;;;;;12.29;84.60;100538.25;4998752;28;20463;-48
2023/12/19 02:35:32;;;;;;;2.28;1.52;;;;;;;12.31;84.85;100523.53;5003442;28;20125;-48
2023/12/19 02:37:58;;;;;;;2.25;0.80;;;;;;;12.32;85.48;100530.47;5004259;28;20077;-45
2023/12/19 02:40:25;;;;;;;2.28;1.33;;;;;;;12.33;85.44;100523.53;4994231;28;20048;-42
2023/12/19 02:42:52;;;;;;;2.15;1.45;;;;;;;12.33;85.26;100521.78;5001835;28;20466;-48
2023/12/19 02:45:20;;;;;;;2.83;1.63;;;;;;;12.32;84.12;100517.47;4999007;28;20134;-51
2023/12/19 02:47:46;;;;;;;2.00;1.10;;;;;;;12.31;85.27;100509.69;5006580;28;20045;-46
2023/12/19 02:50:15;;;;;;;1.52;0.85;;;;;;;12.30;85.49;100516.59;5002246;28;20096;-49
2023/12/19 02:52:42;;;;;;;1.67;0.80;;;;;;;12.27;85.57;100518.34;4995055;28;20056;-48
2023/12/19 02:55:09;;;;;;;1.70;1.08;;;;;;;12.29;84.81;100517.47;4988676;28;20046;-48
2023/12/19 02:57:35;;;;;;;1.80;1.38;;;;;;;12.29;85.15;100512.28;4999929;28;20046;-45
2023/12/19 03:00:02;;;;;;;1.65;0.95;;;;;;;12.31;84.79;100513.16;5002904;28;20545;-51
2023/12/19 03:02:29;;;;;;;1.90;0.93;;;;;;;12.31;84.00;100504.50;5005073;28;20046;-46
2023/12/19 03:04:56;;;;;;;1.85;1.02;;;;;;;12.27;85.57;100497.56;4991119;28;20046;-44
2023/12/19 03:07:22;;;;;;;1.17;0.90;;;;;;;12.25;85.71;100500.19;5002562;28;20080;-44
2023/12/19 03:09:49;;;;;;;1.50;1.00;;;;;;;12.29;84.93;100501.06;5001375;28;20521;-44
2023/12/19 03:12:16;;;;;;;1.65;1.08;;;;;;;12.25;85.15;100489.78;4998279;28;20077;-53
2023/12/19 03:14:43;;;;;;;1.52;0.85;;;;;;;12.28;84.81;100487.19;5001597;28;20046;-45
2023/12/19 03:17:09;;;;;;;1.80;1.20;;;;;;;12.27;84.70;100492.38;5003889;28;20046;-54
2023/12/19 03:19:36;;;;;;;3.38;1.33;;;;;;;12.27;84.62;100493.25;5002632;28;20050;-48
2023/12/19 03:22:03;;;;;;;3.17;1.20;;;;;;;12.28;84.71;100494.09;4999083;28;20050;-52
2023/12/19 03:24:30;;;;;;;2.28;1.33;;;;;;;12.29;85.24;100486.31;5000013;28;20049;-46
2023/12/19 03:26:56;;;;;;;2.40;1.08;;;;;;;12.28;84.99;100489.78;4997427;28;20066;-45
2023/12/19 03:29:23;;;;;;;2.30;1.33;;;;;;;12.28;84.74;100479.41;5001791;28;20145;-42
2023/12/19 03:31:50;;;;;;;1.70;0.82;;;;;;;12.26;85.43;100475.91;5003510;28;20042;-48
2023/12/19 03:34:18;;;;;;;1.90;1.20;;;;;;;12.30;85.14;100477.63;4997709;28;20049;-48
2023/12/19 03:36:45;;;;;;;2.35;1.05;;;;;;;12.27;84.72;100472.47;4994943;28;20054;-43
2023/12/19 03:39:11;;;;;;;2.47;1.17;;;;;;;12.26;84.85;100460.34;4998417;28;20117;-45
2023/12/19 03:41:39;;;;;;;2.78;1.25;;;;;;;12.25;85.62;100448.22;5001869;28;20057;-44
2023/12/19 03:44:06;;;;;;;1.60;0.90;;;;;;;12.25;84.90;100443.03;4999428;28;20583;-46
2023/12/19 03:46:32;;;;;;;0.88;0.50;;;;;;;12.22;85.69;100448.25;4999369;28;20053;-49
2023/12/19 03:48:59;;;;;;;1.70;1.00;;;;;;;12.24;85.35;100451.72;4998685;28;20062;-45
2023/12/19 03:51:27;;;;;;;1.23;0.90;;;;;;;12.22;85.71;100453.44;4993815;28;20050;-49
2023/12/19 03:53:54;;;;;;;1.67;1.23;;;;;;;12.22;84.95;100453.44;4998633;28;20056;-43
2023/12/19 03:56:22;;;;;;;1.58;1.02;;;;;;;12.19;85.65;100437.84;5001818;28;20058;-46
2023/12/19 03:58:49;;;;;;;1.98;1.25;;;;;;;12.20;84.77;100439.59;5001238;28;20503;-52
2023/12/19 04:01:18;;;;;;;2.53;1.17;;;;;;;12.20;85.47;100439.59;5002727;28;20073;-46
2023/12/19 04:03:45;;;;;;;0.93;0.50;;;;;;;12.13;84.71;100428.34;4993418;28;20045;-46
2023/12/19 04:06:12;;;;;;;1.90;1.00;;;;;;;12.18;84.85;100430.94;5003672;28;20053;-46
2023/12/19 04:08:39;;;;;;;1.00;0.77;;;;;;;12.14;85.33;100417.13;5005236;28;20127;-48
2023/12/19 04:11:06;;;;;;;1.70;0.90;;;;;;;12.15;84.86;100420.56;5002955;28;20096;-45
2023/12/19 04:13:32;;;;;;;1.40;0.90;;;;;;;12.17;84.61;100419.72;5003310;28;20456;-47
2023/12/19 04:15:59;;;;;;;2.03;1.10;;;;;;;12.15;84.08;100424.03;5005654;28;20058;-49
2023/12/19 04:18:25;;;;;;;1.88;1.30;;;;;;;12.12;84.70;100431.81;4997119;28;20418;-50
2023/12/19 04:20:53;;;;;;;2.47;1.08;;;;;;;12.11;84.78;100439.63;5000809;28;20056;-46
2023/12/19 04:23:19;;;;;;;2.35;1.30;;;;;;;12.11;85.89;100439.63;4994636;28;20046;-44
2023/12/19 04:25:47;;;;;;;3.10;1.45;;;;;;;12.11;85.46;100424.03;5008100;28;20045;-46
2023/12/19 04:28:15;;;;;;;2.38;1.10;;;;;;;12.14;84.97;100430.09;5003165;28;20050;-46
2023/12/19 04:30:42;;;;;;;2.50;1.38;;;;;;;12.14;84.65;100424.03;4997864;28;20599;-45
2023/12/19 04:33:10;;;;;;;2.05;1.23;;;;;;;12.14;84.47;100421.44;5000389;28;20049;-52
2023/12/19 04:35:37;;;;;;;2.83;1.58;;;;;;;12.14;84.66;100426.63;5008565;28;20126;-49
2023/12/19 04:38:04;;;;;;;4.50;1.58;;;;;;;12.11;85.26;100434.41;5008070;28;20061;-46
2023/12/19 04:40:30;;;;;;;1.98;1.20;;;;;;;12.12;85.35;100429.22;5001182;28;20049;-44
2023/12/19 04:42:57;;;;;;;2.05;1.08;;;;;;;12.13;85.46;100430.09;5004738;28;20048;-42
2023/12/19 04:45:24;;;;;;;2.10;1.10;;;;;;;12.13;84.57;100428.34;4997634;28;20050;-49
2023/12/19 04:47:52;;;;;;;2.30;1.25;;;;;;;12.15;85.56;100426.63;5007629;28;20049;-47
2023/12/19 04:50:18;;;;;;;2.80;1.45;;;;;;;12.15;83.97;100426.63;5000147;28;20050;-50
2023/12/19 04:52:45;;;;;;;3.33;1.40;;;;;;;12.16;85.61;100443.94;5003076;28;20056;-46
2023/12/19 04:55:12;;;;;;;5.30;2.50;;;;;;;12.16;84.44;100443.09;5000181;28;20046;-47
2023/12/19 04:57:38;;;;;;;3.22;2.13;;;;;;;12.16;85.12;100438.72;4997513;28;20124;-47
2023/12/19 05:00:06;;;;;;;3.20;1.38;;;;;;;12.18;84.37;100446.53;4993648;28;20100;-50
2023/12/19 05:02:33;;;;;;;1.85;0.80;;;;;;;12.14;84.29;100442.22;5001222;28;20129;-48
2023/12/19 05:05:00;;;;;;;1.92;0.95;;;;;;;12.12;85.13;100443.97;5005858;28;20530;-48
2023/12/19 05:07:27;;;;;;;0.52;0.50;;;;;;;12.06;84.73;100440.50;5000819;28;20046;-49
2023/12/19 05:09:53;;;;;;;1.95;1.85;;;;;;;12.00;84.09;100432.72;4998474;28;20507;-48
2023/12/19 05:12:21;;;;;;;1.25;0.20;;;;;;;11.97;84.10;100437.91;5001471;28;20466;-42
2023/12/19 05:14:48;;;;;;;0.88;0.50;;;;;;;11.92;84.14;100437.91;5001885;28;20038;-48
2023/12/19 05:17:15;;;;;;;0.40;0.40;;;;;;;11.87;83.66;100438.78;5001326;28;20369;-48
2023/12/19 05:19:41;;;;;;;0.30;0.30;;;;;;;11.81;84.22;100447.44;4996737;28;20124;-46
2023/12/19 05:22:18;;;;;;;0.82;0.82;;;;;;;11.78;82.94;100448.31;4997796;28;20050;-46
2023/12/19 05:24:45;;;;;;;0.47;0.47;;;;;;;11.74;83.49;100446.59;5000918;28;20048;-46
2023/12/19 05:27:12;;;;;;;0.98;0.50;;;;;;;11.74;82.91;100435.31;4995510;28;20057;-46
2023/12/19 05:29:38;;;;;;;0.50;0.40;;;;;;;11.72;82.86;100437.06;5002928;28;20049;-49
2023/12/19 05:32:05;;;;;;;0.40;0.35;;;;;;;11.70;83.27;100443.16;5003431;28;20066;-45
2023/12/19 05:34:32;;;;;;;0.82;0.73;;;;;;;11.69;83.46;100445.75;5000612;28;20057;-54
2023/12/19 05:37:00;;;;;;;0.82;0.55;;;;;;;11.69;83.41;100445.75;4998329;28;20057;-46
2023/12/19 05:39:26;;;;;;;2.47;0.60;;;;;;;11.67;82.73;100447.44;4998889;28;20095;-50
2023/12/19 05:41:56;;;;;;;1.00;0.70;;;;;;;11.67;84.20;100450.06;4994760;28;20053;-46
2023/12/19 05:44:23;;;;;;;0.88;0.68;;;;;;;11.67;83.36;100450.06;4999491;28;20447;-46
2023/12/19 05:46:50;;;;;;;1.85;0.82;;;;;;;11.67;83.71;100448.34;4996876;28;20053;-44
2023/12/19 05:49:18;;;;;;;0.30;0.28;;;;;;;11.67;84.10;100450.06;5000272;28;20108;-47
2023/12/19 05:51:45;;;;;;;0.95;0.85;;;;;;;11.67;83.21;100450.06;4999865;28;20051;-48
2023/12/19 05:54:12;;;;;;;2.00;0.98;;;;;;;11.65;83.66;100437.06;4999272;28;20050;-46
2023/12/19 05:56:39;;;;;;;1.38;1.02;;;;;;;11.66;82.65;100437.94;5005013;28;20061;-48
2023/12/19 05:59:05;;;;;;;1.73;0.77;;;;;;;11.66;83.96;100438.78;5005229;28;20046;-46
2023/12/19 06:01:32;;;;;;;0.95;0.77;;;;;;;11.66;83.09;100437.94;5003927;28;20540;-45
2023/12/19 06:04:00;;;;;;;0.88;0.57;;;;;;;11.66;82.74;100437.94;5001713;28;20053;-44
2023/12/19 06:06:27;;;;;;;3.72;0.88;;;;;;;11.66;83.01;100437.94;4997464;28;20152;-50
2023/12/19 06:08:55;;;;;;;1.60;1.00;;;;;;;11.65;82.44;100436.22;4991467;28;20048;-44
2023/12/19 06:11:27;;;;;;;1.23;0.90;;;;;;;11.65;82.76;100436.22;4999301;28;20062;-45
2023/12/19 06:13:54;;;;;;;1.17;0.85;;;;;;;11.65;83.43;100439.66;4994415;28;20077;-47
2023/12/19 06:16:20;;;;;;;1.52;0.90;;;;;;;11.63;82.73;100443.13;5000582;28;20080;-49
2023/12/19 06:18:47;;;;;;;1.90;0.98;;;;;;;11.62;82.65;100446.59;5002241;28;20050;-47
2023/12/19 06:21:14;;;;;;;2.13;0.82;;;;;;;11.59;82.91;100452.66;5003159;28;20557;-48
2023/12/19 06:23:41;;;;;;;2.38;1.17;;;;;;;11.57;82.84;100446.59;4999383;28;20049;-47
2023/12/19 06:26:08;;;;;;;1.95;1.30;;;;;;;11.57;83.15;100449.19;5002622;28;20084;-45
2023/12/19 06:28:35;;;;;;;2.83;1.10;;;;;;;11.55;83.46;100446.59;5005453;28;20482;-50
2023/12/19 06:31:01;;;;;;;3.40;1.73;;;;;;;11.55;82.56;100450.94;4999689;28;20080;-54
2023/12/19 06:33:28;;;;;;;3.42;1.42;;;;;;;11.54;82.48;100457.84;5003741;28;20050;-51
2023/12/19 06:35:55;;;;;;;3.03;1.60;;;;;;;11.54;82.99;100454.38;5006713;28;20129;-48
2023/12/19 06:38:22;;;;;;;5.63;1.63;;;;;;;11.54;82.79;100455.25;5001700;28;20043;-45
2023/12/19 06:40:49;;;;;;;2.78;1.60;;;;;;;11.52;83.94;100456.97;5001116;28;20042;-45
2023/12/19 06:43:19;;;;;;;4.35;2.00;;;;;;;11.51;83.48;100452.66;4998824;28;20046;-48
2023/12/19 06:45:45;;;;;;;4.03;1.73;;;;;;;11.50;83.73;100463.03;5004309;28;20053;-48
2023/12/19 06:48:12;;;;;;;3.05;1.50;;;;;;;11.48;82.94;100457.84;5004669;28;20057;-46
2023/12/19 06:50:39;;;;;;;4.18;1.40;;;;;;;11.46;82.73;100454.38;4999714;28;20082;-48
2023/12/19 06:53:06;;;;;;;4.20;1.83;;;;;;;11.46;83.17;100456.09;5003637;28;20057;-49
2023/12/19 06:55:33;;;;;;;4.13;2.15;;;;;;;11.43;82.94;100450.06;5000420;28;20165;-44
2023/12/19 06:58:01;;;;;;;4.07;1.80;;;;;;;11.41;82.90;100459.56;4999453;28;20050;-50
2023/12/19 07:00:28;;;;;;;4.05;2.20;;;;;;;11.39;83.31;100457.84;4998845;28;20087;-53
2023/12/19 07:02:55;;;;;;;4.03;2.10;;;;;;;11.37;83.43;100473.41;5000027;28;20652;-50
2023/12/19 07:05:22;;;;;;;4.55;2.38;;;;;;;11.35;82.68;100463.91;4996026;28;20452;-48
2023/12/19 07:07:51;;;;;;;6.07;2.58;;;;;;;11.31;83.43;100453.50;4998487;28;20531;-51
2023/12/19 07:10:19;;;;;;;5.13;2.00;;;;;;;11.29;82.67;100455.22;4998856;28;20100;-45
2023/12/19 07:12:45;;;;;;;6.53;2.30;;;;;;;11.26;82.92;100452.66;4997645;28;20323;-54
2023/12/19 07:15:12;;;;;;;9.75;4.28;;;;;;;11.24;82.88;100464.72;5002310;28;20398;-47
2023/12/19 07:17:39;;;;;;;4.88;2.72;;;;;;;11.20;83.37;100450.03;5003263;28;20499;-49
2023/12/19 07:20:07;;;;;;;5.65;2.38;;;;;;;11.17;82.94;100440.53;4991107;28;20413;-49
2023/12/19 07:22:35;;;;;;;6.70;2.75;;;;;;;11.15;82.09;100450.03;4999978;28;20082;-49
2023/12/19 07:25:02;;;;;;;6.25;2.88;;;;;;;11.14;82.93;100455.22;4992803;28;20133;-43
2023/12/19 07:27:30;;;;;;;5.68;2.58;;;;;;;11.12;83.39;100450.06;4997645;28;20049;-47
2023/12/19 07:30:02;;;;;;;7.70;2.75;;;;;;;11.10;83.36;100453.47;4994231;28;20062;-47
2023/12/19 07:32:30;;;;;;;8.05;2.85;;;;;;;11.08;82.22;100456.06;4997841;28;20518;-45
2023/12/19 07:34:56;;;;;;;7.78;2.90;;;;;;;11.07;82.94;100456.09;5001571;28;20141;-48
2023/12/19 07:37:23;;;;;;;7.10;2.80;;;;;;;11.08;83.12;100455.22;4997449;28;20065;-50
2023/12/19 07:39:50;;;;;;;9.32;3.42;;;;;;;11.05;82.07;100453.50;5000469;28;20388;-49
2023/12/19 07:42:17;;;;;;;5.03;1.95;;;;;;;11.04;82.06;100449.16;5002110;28;20049;-49
2023/12/19 07:44:44;;;;;;;6.55;2.10;;;;;;;11.03;83.30;100448.31;5005560;28;20053;-50
2023/12/19 07:47:12;;;;;;;6.93;2.85;;;;;;;11.02;83.40;100443.94;5001189;28;20061;-54
2023/12/19 07:49:38;;;;;;;6.20;2.22;;;;;;;11.00;83.54;100442.22;4992158;28;20049;-50
2023/12/19 07:52:05;;;;;;;5.10;2.13;;;;;;;10.97;82.24;100443.09;4998017;28;20054;-45
2023/12/19 07:54:32;;;;;;;6.43;2.53;;;;;;;10.97;82.36;100440.50;5001123;28;20054;-46
2023/12/19 07:56:59;;;;;;;6.05;2.15;;;;;;;10.97;81.93;100437.91;4999479;28;20058;-48
2023/12/19 07:59:25;;;;;;;5.60;2.15;;;;;;;10.96;82.80;100436.19;4999149;28;20046;-46
2023/12/19 08:01:52;;;;;;;5.53;2.47;;;;;;;10.96;83.78;100441.38;4999804;28;20046;-51
2023/12/19 08:04:19;;;;;;;5.43;2.30;;;;;;;10.97;83.66;100437.91;4995107;28;20042;-44
2023/12/19 08:06:47;;;;;;;6.13;2.20;;;;;;;10.97;83.12;100437.06;4994336;28;20053;-44
2023/12/19 08:09:15;;;;;;;5.38;2.25;;;;;;;10.95;83.67;100434.47;4995460;28;20046;-46
2023/12/19 08:11:41;;;;;;;5.47;2.05;;;;;;;10.95;83.29;100434.47;4996669;28;20054;-47
2023/12/19 08:14:08;;;;;;;7.07;2.78;;;;;;;10.93;82.78;100436.16;5000298;28;20057;-53
2023/12/19 08:16:36;;;;;;;9.52;3.35;;;;;;;10.93;83.36;100436.16;4998913;28;20411;-52
2023/12/19 08:19:03;;;;;;;6.65;2.22;;;;;;;10.92;83.13;100439.63;4996057;28;20072;-47
2023/12/19 08:21:32;;;;;;;6.55;2.35;;;;;;;10.90;82.36;100444.81;4999875;28;20050;-47
2023/12/19 08:23:59;;;;;;;6.22;2.08;;;;;;;10.89;82.60;100437.91;5000113;28;20567;-47
2023/12/19 08:26:25;;;;;;;6.72;2.17;;;;;;;10.88;83.06;100437.91;4996902;28;20503;-50
2023/12/19 08:28:52;;;;;;;6.63;2.95;;;;;;;10.88;82.40;100437.91;4993713;28;20052;-48
2023/12/19 08:31:19;;;;;;;7.95;2.58;;;;;;;10.89;83.44;100439.63;4999960;28;20550;-46
2023/12/19 08:33:46;;;;;;;7.80;2.50;;;;;;;10.86;83.28;100435.31;4997990;28;20049;-48
2023/12/19 08:36:13;;;;;;;6.60;2.65;;;;;;;10.85;83.24;100438.75;4998724;28;20136;-50
2023/12/19 08:39:00;;;;;;;4.85;2.10;;;;;;;10.83;82.92;100440.47;5005437;28;20112;-45
2023/12/19 08:41:28;;;;;;;5.28;2.60;;;;;;;10.82;83.47;100432.69;5000749;28;20596;-47
2023/12/19 08:43:55;;;;;;;5.32;1.95;;;;;;;10.79;82.43;100431.84;5003196;28;20061;-52
2023/12/19 08:46:22;;;;;;;6.18;3.00;;;;;;;10.78;82.88;100430.09;5002957;28;20061;-48
2023/12/19 08:48:49;;;;;;;5.07;2.50;;;;;;;10.78;82.12;100432.69;5002845;28;20046;-47
2023/12/19 08:51:17;;;;;;;5.95;2.53;;;;;;;10.76;82.51;100437.00;5004735;28;20393;-48
2023/12/19 08:53:44;;;;;;;6.55;2.58;;;;;;;10.75;82.60;100445.66;5001925;28;20062;-51
2023/12/19 08:56:11;;;;;;;6.30;2.42;;;;;;;10.75;82.52;100440.47;5001075;28;20046;-49
2023/12/19 08:58:38;;;;;;;7.60;3.05;;;;;;;10.75;82.55;100449.97;4995874;28;20423;-50
2023/12/19 09:01:04;;;;;;;7.95;2.83;;;;;;;10.74;82.86;100446.47;5000382;28;20078;-50
2023/12/19 09:03:31;;;;;;;5.95;2.45;;;;;;;10.74;82.14;100437.88;4995978;28;20054;-50
2023/12/19 09:05:58;;;;;;;6.75;2.50;;;;;;;10.73;83.14;100437.00;4999471;28;20136;-47
2023/12/19 09:08:25;;;;;;;4.97;2.40;;;;;;;10.74;82.18;100440.47;4994989;28;20042;-46
2023/12/19 09:10:51;;;;;;;5.63;2.45;;;;;;;10.74;82.11;100445.63;5003302;28;20511;-52
2023/12/19 09:13:20;;;;;;;4.22;1.70;;;;;;;10.74;82.85;100446.47;5017348;28;20048;-50
2023/12/19 09:15:47;;;;;;;7.85;2.40;;;;;;;10.73;83.07;100447.34;5013308;28;20053;-46
2023/12/19 09:18:14;;;;;;;7.78;2.33;;;;;;;10.73;82.55;100449.94;5012379;28;20053;-45
2023/12/19 09:20:40;;;;;;;4.40;1.80;;;;;;;10.72;81.98;100448.22;5013976;28;20053;-51
2023/12/19 09:23:07;;;;;;;4.88;1.73;;;;;;;10.72;82.01;100444.75;5010152;28;20053;-49
2023/12/19 09:25:34;;;;;;;5.15;1.73;;;;;;;10.72;82.94;100443.03;5011380;28;20045;-42
2023/12/19 09:28:01;;;;;;;5.32;1.98;;;;;;;10.71;82.30;100450.81;5008521;28;20057;-45
2023/12/19 09:30:28;;;;;;;5.68;2.15;;;;;;;10.71;82.72;100441.28;5007683;28;20050;-48
2023/12/19 09:32:55;;;;;;;4.25;1.70;;;;;;;10.71;83.19;100446.47;5012856;28;20085;-44
2023/12/19 09:35:22;;;;;;;5.15;2.15;;;;;;;10.71;82.75;100450.81;5008646;28;20107;-47
2023/12/19 09:37:49;;;;;;;6.22;2.33;;;;;;;10.68;82.08;100451.66;5012963;28;20041;-48
2023/12/19 09:40:18;;;;;;;5.38;1.98;;;;;;;10.68;82.51;100454.25;5004199;28;20049;-49
2023/12/19 09:42:45;;;;;;;5.03;2.00;;;;;;;10.64;82.74;100452.53;4999146;28;20112;-51
2023/12/19 09:45:14;;;;;;;7.57;2.35;;;;;;;10.66;82.72;100455.97;4999951;28;20246;-45
2023/12/19 09:47:57;;;;;;;6.25;2.10;;;;;;;10.62;82.54;100451.63;5000275;28;20390;-48
2023/12/19 09:50:28;;;;;;;3.75;1.85;;;;;;;10.61;82.75;100439.56;5006317;28;20042;-47
2023/12/19 09:52:57;;;;;;;4.63;1.80;;;;;;;10.60;82.60;100443.00;4998497;28;20052;-48
2023/12/19 09:55:27;;;;;;;3.00;1.40;;;;;;;10.60;82.74;100443.00;5000671;28;20046;-43
2023/12/19 09:57:54;;;;;;;2.78;1.58;;;;;;;10.54;83.52;100438.66;4998485;28;20045;-51
2023/12/19 10:00:23;;;;;;;3.60;1.52;;;;;;;10.57;82.25;100448.19;4999442;28;20073;-44
2023/12/19 10:02:51;;;;;;;2.55;0.95;;;;;;;10.49;83.33;100451.59;5003519;28;20054;-47
2023/12/19 10:05:18;;;;;;;2.85;1.42;;;;;;;10.49;82.86;100455.91;5002750;28;20511;-50
2023/12/19 10:07:47;;;;;;;5.00;1.42;;;;;;;10.48;83.20;100460.22;5004631;28;20038;-45
2023/12/19 10:10:15;;;;;;;3.22;1.50;;;;;;;10.44;82.98;100463.63;5002674;28;20064;-50
2023/12/19 10:12:49;;;;;;;6.63;2.40;;;;;;;10.44;82.50;100468.81;5002917;28;20096;-43
2023/12/19 10:15:25;;;;;;;6.22;2.92;;;;;;;10.44;82.58;100474.00;5000171;28;20042;-45
2023/12/19 10:18:10;;;;;;;6.55;2.47;;;;;;;10.43;82.17;100472.25;4995345;28;20709;-51
2023/12/19 10:20:38;;;;;;;8.80;3.50;;;;;;;10.47;83.19;100480.94;5001252;28;20137;-50
2023/12/19 10:23:05;;;;;;;9.60;3.65;;;;;;;10.50;83.28;100484.41;4993258;28;20045;-44
2023/12/19 10:25:34;;;;;;;8.23;3.05;;;;;;;10.52;82.32;100485.28;4998763;28;20615;-45
2023/12/19 10:28:12;;;;;;;7.65;3.20;;;;;;;10.50;82.46;100484.41;4991828;28;20057;-44
2023/12/19 10:30:39;;;;;;;10.52;3.30;;;;;;;10.52;82.74;100487.88;4991870;28;20155;-51
2023/12/19 10:33:07;;;;;;;8.30;3.42;;;;;;;10.53;83.46;100493.91;5000566;28;20061;-53
2023/12/19 10:35:37;;;;;;;8.82;3.53;;;;;;;10.54;82.45;100496.50;5001531;28;20138;-46
2023/12/19 10:38:04;;;;;;;7.72;3.08;;;;;;;10.53;82.81;100494.78;4997499;28;20042;-49
2023/12/19 10:40:33;;;;;;;5.72;2.67;;;;;;;10.52;82.40;100493.06;5000940;28;20078;-51
2023/12/19 10:43:01;;;;;;;6.47;2.03;;;;;;;10.49;82.32;100505.97;4999279;28;20042;-52
2023/12/19 10:45:28;;;;;;;3.33;2.20;;;;;;;10.46;82.36;100502.50;4999753;28;21507;-46
2023/12/19 10:47:54;;;;;;;3.78;1.77;;;;;;;10.44;82.78;100499.88;5000721;28;20060;-43
2023/12/19 10:50:21;;;;;;;3.13;1.58;;;;;;;10.43;82.77;100492.97;5002549;28;20049;-47
2023/12/19 10:52:51;;;;;;;2.55;1.50;;;;;;;10.40;83.05;100498.13;4998864;28;20546;-44
2023/12/19 10:55:21;;;;;;;4.57;2.17;;;;;;;10.38;82.39;100485.19;4990977;28;20062;-46
2023/12/19 10:57:52;;;;;;;3.60;1.90;;;;;;;10.36;83.25;100480.84;5004315;28;20125;-50
2023/12/19 11:00:23;;;;;;;3.95;2.00;;;;;;;10.34;83.39;100479.97;4991758;28;20046;-49
2023/12/19 11:03:05;;;;;;;4.18;1.85;;;;;;;10.32;82.45;100479.09;5000033;28;20049;-46
2023/12/19 11:05:50;;;;;;;4.68;2.25;;;;;;;10.28;82.88;100476.50;4994959;28;20038;-51
2023/12/19 11:08:19;;;;;;;3.47;2.05;;;;;;;10.29;83.53;100470.47;5002106;28;20053;-46
2023/12/19 11:13:25;;;;;;;5.88;2.28;;;;;;;10.30;83.23;100466.13;5041240;28;20928;-47
2023/12/19 11:15:58;;;;;;;5.88;2.55;;;;;;;10.28;83.08;100457.50;5022034;28;20054;-47
2023/12/19 11:18:41;;;;;;;3.85;2.25;;;;;;;10.25;82.86;100460.94;5024550;28;20096;-44
2023/12/19 11:21:11;;;;;;;;;;;;;;;10.14;82.84;100447.09;5022505;28;20140;-53
2023/12/19 11:26:34;;;;;;;3.55;1.67;;;;;;;10.22;82.95;100450.56;5000926;28;20407;-49
2023/12/19 11:29:01;;;;;;;4.03;2.20;;;;;;;10.26;82.89;100449.72;4996608;28;20058;-50
2023/12/19 11:34:22;;;;;;;3.60;1.55;;;;;;;10.27;82.33;100460.97;5066482;27;20432;-46